sensor_id;sensor_type;location;lat;lon;timestamp;pressure;altitude;pressure_sealevel;temperature;humidity
10688;BME280;5392;42.688;23.298;2023-12-20T00:01:18;95231.91;;;-0.56;87.05
10688;BME280;5392;42.688;23.298;2023-12-20T00:03:44;95229.00;;;-0.52;87.42
10688;BME280;5392;42.688;23.298;2023-12-20T00:06:09;95231.16;;;-0.47;86.95
10688;BME280;5392;42.688;23.298;2023-12-20T00:08:35;95225.97;;;-0.46;86.56
10688;BME280;5392;42.688;23.298;2023-12-20T00:11:01;95226.41;;;-0.41;86.68
10688;BME280;5392;42.688;23.298;2023-12-20T00:13:26;95212.94;;;-0.41;86.39
10688;BME280;5392;42.688;23.298;2023-12-20T00:15:51;95210.78;;;-0.46;86.74
10688;BME280;5392;42.688;23.298;2023-12-20T00:18:17;95216.53;;;-0.44;86.25
10688;BME280;5392;42.688;23.298;2023-12-20T00:20:42;95212.81;;;-0.40;86.18
10688;BME280;5392;42.688;23.298;2023-12-20T00:23:08;95212.25;;;-0.43;86.29
10688;BME280;5392;42.688;23.298;2023-12-20T00:25:34;95200.34;;;-0.52;86.82
10688;BME280;5392;42.688;23.298;2023-12-20T00:28:00;95202.28;;;-0.45;87.12
10688;BME280;5392;42.688;23.298;2023-12-20T00:30:25;95195.81;;;-0.49;86.87
10688;BME280;5392;42.688;23.298;2023-12-20T00:32:51;95195.59;;;-0.46;87.09
10688;BME280;5392;42.688;23.298;2023-12-20T00:35:17;95188.38;;;-0.50;87.19
10688;BME280;5392;42.688;23.298;2023-12-20T00:37:42;95189.84;;;-0.48;87.01
10688;BME280;5392;42.688;23.298;2023-12-20T00:40:08;95186.06;;;-0.53;87.52
10688;BME280;5392;42.688;23.298;2023-12-20T00:42:34;95185.53;;;-0.78;88.58
10688;BME280;5392;42.688;23.298;2023-12-20T00:45:01;95183.75;;;-0.87;89.16
10688;BME280;5392;42.688;23.298;2023-12-20T00:47:26;95184.25;;;-0.72;88.53
10688;BME280;5392;42.688;23.298;2023-12-20T00:49:52;95170.03;;;-0.63;87.63
10688;BME280;5392;42.688;23.298;2023-12-20T00:52:18;95171.25;;;-0.58;87.39
10688;BME280;5392;42.688;23.298;2023-12-20T00:54:44;95172.03;;;-0.67;87.76
10688;BME280;5392;42.688;23.298;2023-12-20T00:57:10;95171.22;;;-0.67;87.49
10688;BME280;5392;42.688;23.298;2023-12-20T00:59:35;95168.06;;;-0.60;87.25
10688;BME280;5392;42.688;23.298;2023-12-20T01:02:01;95169.81;;;-0.60;87.00
10688;BME280;5392;42.688;23.298;2023-12-20T01:04:27;95165.66;;;-0.61;86.37
10688;BME280;5392;42.688;23.298;2023-12-20T01:06:52;95164.59;;;-0.59;86.34
10688;BME280;5392;42.688;23.298;2023-12-20T01:09:18;95159.69;;;-0.60;86.16
10688;BME280;5392;42.688;23.298;2023-12-20T01:11:44;95150.59;;;-0.63;86.37
10688;BME280;5392;42.688;23.298;2023-12-20T01:14:11;95151.13;;;-0.59;86.62
10688;BME280;5392;42.688;23.298;2023-12-20T01:16:37;95155.00;;;-0.65;86.82
10688;BME280;5392;42.688;23.298;2023-12-20T01:19:02;95155.91;;;-0.66;86.94
10688;BME280;5392;42.688;23.298;2023-12-20T01:21:28;95149.25;;;-0.67;86.75
10688;BME280;5392;42.688;23.298;2023-12-20T01:23:53;95149.25;;;-0.67;86.74
10688;BME280;5392;42.688;23.298;2023-12-20T01:26:19;95143.38;;;-0.67;86.86
10688;BME280;5392;42.688;23.298;2023-12-20T01:28:44;95134.44;;;-0.71;86.58
10688;BME280;5392;42.688;23.298;2023-12-20T01:31:09;95126.47;;;-0.67;86.55
10688;BME280;5392;42.688;23.298;2023-12-20T01:33:35;95122.19;;;-0.66;86.23
10688;BME280;5392;42.688;23.298;2023-12-20T01:36:00;95119.25;;;-0.71;86.07
10688;BME280;5392;42.688;23.298;2023-12-20T01:38:26;95128.00;;;-0.76;86.51
10688;BME280;5392;42.688;23.298;2023-12-20T01:40:51;95124.25;;;-0.81;86.32
10688;BME280;5392;42.688;23.298;2023-12-20T01:43:17;95111.78;;;-0.94;86.37
10688;BME280;5392;42.688;23.298;2023-12-20T01:45:42;95114.88;;;-0.90;86.55
10688;BME280;5392;42.688;23.298;2023-12-20T01:48:08;95105.88;;;-1.04;86.51
10688;BME280;5392;42.688;23.298;2023-12-20T01:50:37;95108.84;;;-0.99;86.76
10688;BME280;5392;42.688;23.298;2023-12-20T01:53:05;95097.50;;;-1.04;87.13
10688;BME280;5392;42.688;23.298;2023-12-20T01:55:35;95095.53;;;-1.01;86.70
10688;BME280;5392;42.688;23.298;2023-12-20T01:58:02;95094.03;;;-1.03;86.28
10688;BME280;5392;42.688;23.298;2023-12-20T02:00:29;95094.28;;;-1.06;86.21
10688;BME280;5392;42.688;23.298;2023-12-20T02:02:55;95095.75;;;-1.04;86.43
10688;BME280;5392;42.688;23.298;2023-12-20T02:05:21;95096.69;;;-1.05;86.48
10688;BME280;5392;42.688;23.298;2023-12-20T02:07:47;95082.00;;;-1.11;86.02
10688;BME280;5392;42.688;23.298;2023-12-20T02:10:14;95089.06;;;-1.14;86.82
10688;BME280;5392;42.688;23.298;2023-12-20T02:12:40;95081.19;;;-1.11;86.85
10688;BME280;5392;42.688;23.298;2023-12-20T02:15:06;95081.19;;;-1.11;86.65
10688;BME280;5392;42.688;23.298;2023-12-20T02:17:32;95077.75;;;-1.10;86.82
10688;BME280;5392;42.688;23.298;2023-12-20T02:19:59;95075.09;;;-1.09;86.81
10688;BME280;5392;42.688;23.298;2023-12-20T02:22:24;95074.19;;;-1.08;86.94
10688;BME280;5392;42.688;23.298;2023-12-20T02:24:50;95062.34;;;-1.07;86.87
10688;BME280;5392;42.688;23.298;2023-12-20T02:27:17;95072.69;;;-1.10;87.43
10688;BME280;5392;42.688;23.298;2023-12-20T02:29:43;95059.38;;;-1.12;86.98
10688;BME280;5392;42.688;23.298;2023-12-20T02:32:09;95059.81;;;-1.07;87.50
10688;BME280;5392;42.688;23.298;2023-12-20T02:34:34;95055.66;;;-1.08;87.30
10688;BME280;5392;42.688;23.298;2023-12-20T02:37:00;95058.44;;;-1.11;87.29
10688;BME280;5392;42.688;23.298;2023-12-20T02:39:25;95054.19;;;-1.11;86.99
10688;BME280;5392;42.688;23.298;2023-12-20T02:41:51;95044.72;;;-1.18;86.30
10688;BME280;5392;42.688;23.298;2023-12-20T02:44:16;95039.09;;;-1.22;86.56
10688;BME280;5392;42.688;23.298;2023-12-20T02:46:41;95042.56;;;-1.23;86.48
10688;BME280;5392;42.688;23.298;2023-12-20T02:49:07;95048.66;;;-1.25;86.02
10688;BME280;5392;42.688;23.298;2023-12-20T02:51:32;95045.03;;;-1.32;85.80
10688;BME280;5392;42.688;23.298;2023-12-20T02:53:58;95044.41;;;-1.45;86.18
10688;BME280;5392;42.688;23.298;2023-12-20T02:56:23;95050.59;;;-1.50;86.76
10688;BME280;5392;42.688;23.298;2023-12-20T02:58:49;95049.94;;;-1.52;86.87
10688;BME280;5392;42.688;23.298;2023-12-20T03:01:14;95046.03;;;-1.76;87.63
10688;BME280;5392;42.688;23.298;2023-12-20T03:03:40;95059.00;;;-1.70;87.90
10688;BME280;5392;42.688;23.298;2023-12-20T03:06:05;95045.94;;;-1.75;88.04
10688;BME280;5392;42.688;23.298;2023-12-20T03:08:31;95039.25;;;-1.76;87.77
10688;BME280;5392;42.688;23.298;2023-12-20T03:10:56;95040.56;;;-1.81;87.73
10688;BME280;5392;42.688;23.298;2023-12-20T03:13:22;95035.97;;;-1.87;87.96
10688;BME280;5392;42.688;23.298;2023-12-20T03:15:47;95036.69;;;-1.85;87.82
10688;BME280;5392;42.688;23.298;2023-12-20T03:18:13;95037.50;;;-1.96;88.23
10688;BME280;5392;42.688;23.298;2023-12-20T03:20:38;95042.56;;;-1.96;88.37
10688;BME280;5392;42.688;23.298;2023-12-20T03:23:04;95033.63;;;-2.00;87.52
10688;BME280;5392;42.688;23.298;2023-12-20T03:25:29;95033.06;;;-2.03;87.69
10688;BME280;5392;42.688;23.298;2023-12-20T03:27:55;95032.13;;;-2.02;87.32
10688;BME280;5392;42.688;23.298;2023-12-20T03:30:21;95021.22;;;-2.03;87.51
10688;BME280;5392;42.688;23.298;2023-12-20T03:32:47;95028.38;;;-2.08;88.04
10688;BME280;5392;42.688;23.298;2023-12-20T03:35:12;95024.03;;;-2.17;88.18
10688;BME280;5392;42.688;23.298;2023-12-20T03:37:38;95025.09;;;-2.19;88.35
10688;BME280;5392;42.688;23.298;2023-12-20T03:40:04;95025.09;;;-2.19;88.12
10688;BME280;5392;42.688;23.298;2023-12-20T03:42:30;95028.66;;;-2.33;88.59
10688;BME280;5392;42.688;23.298;2023-12-20T03:44:56;95020.41;;;-2.35;89.11
10688;BME280;5392;42.688;23.298;2023-12-20T03:47:21;95021.22;;;-2.35;88.98
10688;BME280;5392;42.688;23.298;2023-12-20T03:49:47;95023.28;;;-2.29;88.41
10688;BME280;5392;42.688;23.298;2023-12-20T03:52:12;95019.03;;;-2.28;88.54
10688;BME280;5392;42.688;23.298;2023-12-20T03:54:38;95014.06;;;-2.30;88.21
10688;BME280;5392;42.688;23.298;2023-12-20T03:57:04;95012.13;;;-2.26;87.92
10688;BME280;5392;42.688;23.298;2023-12-20T03:59:30;95014.88;;;-2.29;87.74
10688;BME280;5392;42.688;23.298;2023-12-20T04:01:55;95012.38;;;-2.29;87.92
10688;BME280;5392;42.688;23.298;2023-12-20T04:04:21;95005.94;;;-2.33;87.71
10688;BME280;5392;42.688;23.298;2023-12-20T04:06:46;95004.34;;;-2.34;87.72
10688;BME280;5392;42.688;23.298;2023-12-20T04:09:12;95009.03;;;-2.30;87.76
10688;BME280;5392;42.688;23.298;2023-12-20T04:11:37;95002.28;;;-2.40;87.84
10688;BME280;5392;42.688;23.298;2023-12-20T04:14:03;94998.97;;;-2.41;87.70
10688;BME280;5392;42.688;23.298;2023-12-20T04:16:30;94995.06;;;-2.45;87.74
10688;BME280;5392;42.688;23.298;2023-12-20T04:18:56;94995.88;;;-2.44;87.80
10688;BME280;5392;42.688;23.298;2023-12-20T04:21:21;94991.19;;;-2.49;87.83
10688;BME280;5392;42.688;23.298;2023-12-20T04:23:47;94985.13;;;-2.46;87.44
10688;BME280;5392;42.688;23.298;2023-12-20T04:26:12;94989.94;;;-2.54;87.83
10688;BME280;5392;42.688;23.298;2023-12-20T04:28:38;94980.78;;;-2.55;88.19
10688;BME280;5392;42.688;23.298;2023-12-20T04:31:03;94980.34;;;-2.71;88.43
10688;BME280;5392;42.688;23.298;2023-12-20T04:33:29;94980.94;;;-2.68;88.67
10688;BME280;5392;42.688;23.298;2023-12-20T04:35:54;94976.09;;;-2.60;88.30
10688;BME280;5392;42.688;23.298;2023-12-20T04:38:20;94979.84;;;-2.54;87.74
10688;BME280;5392;42.688;23.298;2023-12-20T04:40:45;94979.09;;;-2.66;88.41
10688;BME280;5392;42.688;23.298;2023-12-20T04:43:11;94973.22;;;-2.66;88.41
10688;BME280;5392;42.688;23.298;2023-12-20T04:45:36;94974.25;;;-2.69;88.54
10688;BME280;5392;42.688;23.298;2023-12-20T04:48:02;94976.78;;;-2.69;88.84
10688;BME280;5392;42.688;23.298;2023-12-20T04:50:28;94969.44;;;-2.72;88.88
10688;BME280;5392;42.688;23.298;2023-12-20T04:52:53;94966.81;;;-2.70;89.14
10688;BME280;5392;42.688;23.298;2023-12-20T04:55:19;94967.94;;;-2.74;89.03
10688;BME280;5392;42.688;23.298;2023-12-20T04:57:45;94969.34;;;-2.70;89.57
10688;BME280;5392;42.688;23.298;2023-12-20T05:00:11;94966.69;;;-2.69;89.64
10688;BME280;5392;42.688;23.298;2023-12-20T05:02:37;94968.41;;;-2.69;89.57
10688;BME280;5392;42.688;23.298;2023-12-20T05:05:03;94958.56;;;-2.72;89.80
10688;BME280;5392;42.688;23.298;2023-12-20T05:07:29;94963.84;;;-2.75;90.27
10688;BME280;5392;42.688;23.298;2023-12-20T05:09:54;94951.34;;;-2.66;90.48
10688;BME280;5392;42.688;23.298;2023-12-20T05:12:20;94954.41;;;-2.62;90.24
10688;BME280;5392;42.688;23.298;2023-12-20T05:14:46;94958.06;;;-2.55;90.70
10688;BME280;5392;42.688;23.298;2023-12-20T05:17:11;94954.38;;;-2.51;90.75
10688;BME280;5392;42.688;23.298;2023-12-20T05:19:37;94961.38;;;-2.44;90.69
10688;BME280;5392;42.688;23.298;2023-12-20T05:22:02;94957.44;;;-2.37;90.44
10688;BME280;5392;42.688;23.298;2023-12-20T05:24:28;94955.09;;;-2.29;90.19
10688;BME280;5392;42.688;23.298;2023-12-20T05:26:54;94947.16;;;-2.24;90.25
10688;BME280;5392;42.688;23.298;2023-12-20T05:29:20;94946.13;;;-2.22;90.52
10688;BME280;5392;42.688;23.298;2023-12-20T05:31:45;94940.47;;;-2.14;90.04
10688;BME280;5392;42.688;23.298;2023-12-20T05:34:11;94931.03;;;-2.12;90.02
10688;BME280;5392;42.688;23.298;2023-12-20T05:36:36;94933.16;;;-2.17;89.95
10688;BME280;5392;42.688;23.298;2023-12-20T05:39:03;94934.81;;;-2.06;90.09
10688;BME280;5392;42.688;23.298;2023-12-20T05:41:33;94939.25;;;-1.99;89.39
10688;BME280;5392;42.688;23.298;2023-12-20T05:43:58;94937.66;;;-2.00;89.73
10688;BME280;5392;42.688;23.298;2023-12-20T05:46:24;94930.50;;;-1.95;89.31
10688;BME280;5392;42.688;23.298;2023-12-20T05:48:50;94921.31;;;-1.96;89.01
10688;BME280;5392;42.688;23.298;2023-12-20T05:51:17;94931.91;;;-2.02;89.20
10688;BME280;5392;42.688;23.298;2023-12-20T05:53:42;94922.25;;;-1.97;89.04
10688;BME280;5392;42.688;23.298;2023-12-20T05:56:09;94919.47;;;-1.94;88.78
10688;BME280;5392;42.688;23.298;2023-12-20T05:58:35;94925.19;;;-1.92;87.71
10688;BME280;5392;42.688;23.298;2023-12-20T06:01:00;94913.56;;;-2.04;87.90
10688;BME280;5392;42.688;23.298;2023-12-20T06:03:26;94924.47;;;-2.03;88.45
10688;BME280;5392;42.688;23.298;2023-12-20T06:05:51;94926.06;;;-2.02;88.74
10688;BME280;5392;42.688;23.298;2023-12-20T06:08:17;94918.19;;;-2.09;88.78
10688;BME280;5392;42.688;23.298;2023-12-20T06:10:42;94918.75;;;-2.05;88.97
10688;BME280;5392;42.688;23.298;2023-12-20T06:13:08;94911.47;;;-1.99;88.27
10688;BME280;5392;42.688;23.298;2023-12-20T06:15:33;94916.41;;;-1.97;88.37
10688;BME280;5392;42.688;23.298;2023-12-20T06:17:59;94920.34;;;-2.04;89.57
10688;BME280;5392;42.688;23.298;2023-12-20T06:20:24;94927.53;;;-2.00;88.99
10688;BME280;5392;42.688;23.298;2023-12-20T06:22:50;94921.06;;;-1.93;88.75
10688;BME280;5392;42.688;23.298;2023-12-20T06:25:16;94922.19;;;-1.86;88.39
10688;BME280;5392;42.688;23.298;2023-12-20T06:27:41;94922.13;;;-1.95;88.33
10688;BME280;5392;42.688;23.298;2023-12-20T06:30:07;94919.28;;;-1.81;87.58
10688;BME280;5392;42.688;23.298;2023-12-20T06:32:34;94915.97;;;-1.82;88.06
10688;BME280;5392;42.688;23.298;2023-12-20T06:35:00;94915.91;;;-1.91;88.68
10688;BME280;5392;42.688;23.298;2023-12-20T06:37:26;94921.38;;;-1.86;88.54
10688;BME280;5392;42.688;23.298;2023-12-20T06:39:51;94917.94;;;-1.85;88.39
10688;BME280;5392;42.688;23.298;2023-12-20T06:42:17;94903.88;;;-1.78;88.71
10688;BME280;5392;42.688;23.298;2023-12-20T06:44:42;94910.59;;;-1.68;87.75
10688;BME280;5392;42.688;23.298;2023-12-20T06:47:08;94913.28;;;-1.60;87.54
10688;BME280;5392;42.688;23.298;2023-12-20T06:49:33;94902.03;;;-1.46;87.48
10688;BME280;5392;42.688;23.298;2023-12-20T06:51:59;94896.38;;;-1.38;86.47
10688;BME280;5392;42.688;23.298;2023-12-20T06:54:24;94901.03;;;-1.34;85.63
10688;BME280;5392;42.688;23.298;2023-12-20T06:56:50;94899.28;;;-1.33;86.68
10688;BME280;5392;42.688;23.298;2023-12-20T06:59:15;94904.53;;;-1.25;85.56
10688;BME280;5392;42.688;23.298;2023-12-20T07:01:41;94893.50;;;-1.45;87.16
10688;BME280;5392;42.688;23.298;2023-12-20T07:04:06;94887.69;;;-1.45;86.54
10688;BME280;5392;42.688;23.298;2023-12-20T07:06:32;94886.44;;;-1.51;86.44
10688;BME280;5392;42.688;23.298;2023-12-20T07:08:57;94887.97;;;-1.39;86.42
10688;BME280;5392;42.688;23.298;2023-12-20T07:11:23;94891.22;;;-1.27;86.70
10688;BME280;5392;42.688;23.298;2023-12-20T07:13:49;94889.34;;;-1.25;86.74
10688;BME280;5392;42.688;23.298;2023-12-20T07:16:15;94883.78;;;-1.19;86.36
10688;BME280;5392;42.688;23.298;2023-12-20T07:18:40;94883.09;;;-1.21;85.87
10688;BME280;5392;42.688;23.298;2023-12-20T07:21:06;94875.03;;;-1.06;85.46
10688;BME280;5392;42.688;23.298;2023-12-20T07:23:33;94880.22;;;-0.98;86.53
10688;BME280;5392;42.688;23.298;2023-12-20T07:25:59;94872.53;;;-0.87;85.67
10688;BME280;5392;42.688;23.298;2023-12-20T07:28:24;94866.28;;;-0.63;84.83
10688;BME280;5392;42.688;23.298;2023-12-20T07:30:50;94865.09;;;-0.59;86.80
10688;BME280;5392;42.688;23.298;2023-12-20T07:33:15;94867.09;;;-0.44;84.14
10688;BME280;5392;42.688;23.298;2023-12-20T07:35:41;94868.16;;;-0.46;83.94
10688;BME280;5392;42.688;23.298;2023-12-20T07:38:06;94865.25;;;-0.51;83.87
10688;BME280;5392;42.688;23.298;2023-12-20T07:40:32;94873.88;;;-0.44;83.58
10688;BME280;5392;42.688;23.298;2023-12-20T07:42:57;94869.47;;;-0.42;84.07
10688;BME280;5392;42.688;23.298;2023-12-20T07:45:23;94868.28;;;-0.29;84.09
10688;BME280;5392;42.688;23.298;2023-12-20T07:47:49;94872.28;;;-0.17;83.89
10688;BME280;5392;42.688;23.298;2023-12-20T07:50:15;94861.09;;;-0.24;84.41
10688;BME280;5392;42.688;23.298;2023-12-20T07:52:41;94859.22;;;-0.22;84.33
10688;BME280;5392;42.688;23.298;2023-12-20T07:55:07;94860.13;;;-0.13;83.82
10688;BME280;5392;42.688;23.298;2023-12-20T07:57:32;94859.31;;;-0.04;83.09
10688;BME280;5392;42.688;23.298;2023-12-20T07:59:58;94869.03;;;0.00;82.58
10688;BME280;5392;42.688;23.298;2023-12-20T08:02:23;94855.59;;;0.00;83.51
10688;BME280;5392;42.688;23.298;2023-12-20T08:04:49;94844.66;;;-0.10;82.77
10688;BME280;5392;42.688;23.298;2023-12-20T08:07:14;94862.00;;;-0.15;82.79
10688;BME280;5392;42.688;23.298;2023-12-20T08:09:40;94856.56;;;-0.20;83.21
10688;BME280;5392;42.688;23.298;2023-12-20T08:12:05;94858.56;;;-0.24;83.17
10688;BME280;5392;42.688;23.298;2023-12-20T08:14:31;94850.16;;;-0.24;83.68
10688;BME280;5392;42.688;23.298;2023-12-20T08:16:57;94839.59;;;-0.10;83.53
10688;BME280;5392;42.688;23.298;2023-12-20T08:19:22;94847.31;;;-0.02;83.07
10688;BME280;5392;42.688;23.298;2023-12-20T08:21:48;94837.81;;;0.10;83.00
10688;BME280;5392;42.688;23.298;2023-12-20T08:24:13;94845.22;;;0.30;81.95
10688;BME280;5392;42.688;23.298;2023-12-20T08:26:39;94837.78;;;0.56;82.23
10688;BME280;5392;42.688;23.298;2023-12-20T08:29:04;94833.25;;;0.87;82.05
10688;BME280;5392;42.688;23.298;2023-12-20T08:31:30;94835.44;;;1.17;80.45
10688;BME280;5392;42.688;23.298;2023-12-20T08:33:55;94840.03;;;1.31;79.73
10688;BME280;5392;42.688;23.298;2023-12-20T08:36:21;94819.50;;;1.07;80.82
10688;BME280;5392;42.688;23.298;2023-12-20T08:38:48;94814.47;;;0.97;79.72
10688;BME280;5392;42.688;23.298;2023-12-20T08:41:16;94818.53;;;0.90;79.53
10688;BME280;5392;42.688;23.298;2023-12-20T08:43:42;94815.25;;;0.80;80.28
10688;BME280;5392;42.688;23.298;2023-12-20T08:46:08;94815.59;;;0.85;79.83
10688;BME280;5392;42.688;23.298;2023-12-20T08:48:37;94806.13;;;0.87;78.96
10688;BME280;5392;42.688;23.298;2023-12-20T08:51:03;94807.97;;;0.67;80.36
10688;BME280;5392;42.688;23.298;2023-12-20T08:53:29;94808.63;;;0.69;80.33
10688;BME280;5392;42.688;23.298;2023-12-20T08:55:55;94811.47;;;0.66;79.88
10688;BME280;5392;42.688;23.298;2023-12-20T08:58:20;94796.50;;;0.63;80.77
10688;BME280;5392;42.688;23.298;2023-12-20T09:00:45;94799.03;;;0.63;80.77
10688;BME280;5392;42.688;23.298;2023-12-20T09:03:11;94787.97;;;0.64;81.13
10688;BME280;5392;42.688;23.298;2023-12-20T09:05:36;94784.78;;;0.62;80.71
10688;BME280;5392;42.688;23.298;2023-12-20T09:08:02;94768.84;;;0.70;80.70
10688;BME280;5392;42.688;23.298;2023-12-20T09:10:27;94769.44;;;0.82;79.83
10688;BME280;5392;42.688;23.298;2023-12-20T09:12:53;94759.88;;;0.93;80.21
10688;BME280;5392;42.688;23.298;2023-12-20T09:15:26;94747.69;;;1.14;80.58
10688;BME280;5392;42.688;23.298;2023-12-20T09:17:52;94746.28;;;1.37;79.40
10688;BME280;5392;42.688;23.298;2023-12-20T09:20:18;94736.38;;;1.52;76.88
10688;BME280;5392;42.688;23.298;2023-12-20T09:22:43;94728.88;;;1.42;77.10
10688;BME280;5392;42.688;23.298;2023-12-20T09:25:12;94722.47;;;1.38;76.82
10688;BME280;5392;42.688;23.298;2023-12-20T09:27:39;94720.75;;;1.39;77.42
10688;BME280;5392;42.688;23.298;2023-12-20T09:30:05;94712.75;;;1.52;76.80
10688;BME280;5392;42.688;23.298;2023-12-20T09:32:31;94706.78;;;1.61;77.16
10688;BME280;5392;42.688;23.298;2023-12-20T09:34:56;94707.75;;;1.68;77.06
10688;BME280;5392;42.688;23.298;2023-12-20T09:37:26;94703.72;;;1.83;75.70
10688;BME280;5392;42.688;23.298;2023-12-20T09:39:52;94689.78;;;1.87;76.16
10688;BME280;5392;42.688;23.298;2023-12-20T09:42:24;94694.25;;;1.93;75.04
10688;BME280;5392;42.688;23.298;2023-12-20T09:44:50;94683.06;;;1.86;75.37
10688;BME280;5392;42.688;23.298;2023-12-20T09:47:19;94681.25;;;2.04;74.93
10688;BME280;5392;42.688;23.298;2023-12-20T09:49:48;94669.59;;;2.27;74.70
10688;BME280;5392;42.688;23.298;2023-12-20T09:52:14;94669.13;;;2.40;74.74
10688;BME280;5392;42.688;23.298;2023-12-20T09:54:59;94664.63;;;2.17;74.25
10688;BME280;5392;42.688;23.298;2023-12-20T09:57:27;94671.78;;;2.14;74.32
10688;BME280;5392;42.688;23.298;2023-12-20T09:59:52;94657.81;;;2.26;73.93
10688;BME280;5392;42.688;23.298;2023-12-20T10:02:20;94660.56;;;2.41;73.55
10688;BME280;5392;42.688;23.298;2023-12-20T10:04:49;94648.03;;;2.55;72.70
10688;BME280;5392;42.688;23.298;2023-12-20T10:07:15;94663.00;;;2.82;72.89
10688;BME280;5392;42.688;23.298;2023-12-20T10:09:41;94653.47;;;3.09;70.74
10688;BME280;5392;42.688;23.298;2023-12-20T10:12:07;94640.56;;;3.26;70.42
10688;BME280;5392;42.688;23.298;2023-12-20T10:14:32;94648.50;;;3.39;69.30
10688;BME280;5392;42.688;23.298;2023-12-20T10:17:05;94634.66;;;3.42;69.57
10688;BME280;5392;42.688;23.298;2023-12-20T10:19:33;94633.69;;;3.35;70.16
10688;BME280;5392;42.688;23.298;2023-12-20T10:21:59;94626.88;;;3.27;69.44
10688;BME280;5392;42.688;23.298;2023-12-20T10:24:25;94630.84;;;3.30;71.11
10688;BME280;5392;42.688;23.298;2023-12-20T10:27:04;94619.06;;;3.37;70.25
10688;BME280;5392;42.688;23.298;2023-12-20T10:29:33;94606.66;;;3.34;70.53
10688;BME280;5392;42.688;23.298;2023-12-20T10:31:59;94608.84;;;3.45;70.44
10688;BME280;5392;42.688;23.298;2023-12-20T10:34:25;94602.28;;;3.50;70.19
10688;BME280;5392;42.688;23.298;2023-12-20T10:36:51;94594.34;;;3.53;69.54
10688;BME280;5392;42.688;23.298;2023-12-20T10:39:17;94599.50;;;3.29;69.81
10688;BME280;5392;42.688;23.298;2023-12-20T10:41:43;94589.38;;;2.81;72.42
10688;BME280;5392;42.688;23.298;2023-12-20T10:44:12;94588.09;;;3.01;71.93
10688;BME280;5392;42.688;23.298;2023-12-20T10:46:40;94581.38;;;3.00;71.10
10688;BME280;5392;42.688;23.298;2023-12-20T10:49:06;94570.09;;;2.46;73.92
10688;BME280;5392;42.688;23.298;2023-12-20T10:51:34;94570.28;;;2.69;73.11
10688;BME280;5392;42.688;23.298;2023-12-20T10:54:00;94575.69;;;2.74;73.21
10688;BME280;5392;42.688;23.298;2023-12-20T10:56:30;94567.88;;;2.91;71.71
10688;BME280;5392;42.688;23.298;2023-12-20T10:58:57;94563.13;;;2.64;72.71
10688;BME280;5392;42.688;23.298;2023-12-20T11:01:25;94566.00;;;2.45;73.36
10688;BME280;5392;42.688;23.298;2023-12-20T11:03:53;94549.91;;;2.29;74.39
10688;BME280;5392;42.688;23.298;2023-12-20T11:06:36;94558.81;;;2.25;73.75
10688;BME280;5392;42.688;23.298;2023-12-20T11:09:18;94540.00;;;1.93;74.73
10688;BME280;5392;42.688;23.298;2023-12-20T11:14:47;94526.81;;;1.98;75.12
10688;BME280;5392;42.688;23.298;2023-12-20T11:17:14;94539.19;;;1.93;75.32
10688;BME280;5392;42.688;23.298;2023-12-20T11:22:26;94534.28;;;1.91;74.87
10688;BME280;5392;42.688;23.298;2023-12-20T11:25:11;94518.38;;;1.81;75.12
10688;BME280;5392;42.688;23.298;2023-12-20T11:27:40;94516.13;;;1.70;76.07
10688;BME280;5392;42.688;23.298;2023-12-20T11:30:08;94505.94;;;1.62;76.36
10688;BME280;5392;42.688;23.298;2023-12-20T11:32:35;94497.03;;;1.58;77.12
10688;BME280;5392;42.688;23.298;2023-12-20T11:37:37;94488.63;;;1.50;77.45
10688;BME280;5392;42.688;23.298;2023-12-20T11:40:07;94485.91;;;1.51;78.28
10688;BME280;5392;42.688;23.298;2023-12-20T11:42:40;94476.69;;;1.50;78.95
10688;BME280;5392;42.688;23.298;2023-12-20T11:45:24;94471.03;;;1.72;77.49
10688;BME280;5392;42.688;23.298;2023-12-20T11:47:51;94470.72;;;1.83;77.64
10688;BME280;5392;42.688;23.298;2023-12-20T11:50:19;94458.03;;;1.99;77.71
10688;BME280;5392;42.688;23.298;2023-12-20T11:52:45;94465.00;;;1.81;78.16
10688;BME280;5392;42.688;23.298;2023-12-20T11:55:10;94453.91;;;2.06;77.65
10688;BME280;5392;42.688;23.298;2023-12-20T11:57:37;94445.00;;;2.27;76.44
10688;BME280;5392;42.688;23.298;2023-12-20T12:00:03;94437.06;;;2.30;77.03
10688;BME280;5392;42.688;23.298;2023-12-20T12:02:30;94432.44;;;2.33;77.16
10688;BME280;5392;42.688;23.298;2023-12-20T12:04:56;94427.34;;;2.49;76.31
10688;BME280;5392;42.688;23.298;2023-12-20T12:07:22;94426.53;;;2.65;76.02
10688;BME280;5392;42.688;23.298;2023-12-20T12:09:47;94416.16;;;2.74;75.38
10688;BME280;5392;42.688;23.298;2023-12-20T12:12:13;94417.28;;;2.72;75.22
10688;BME280;5392;42.688;23.298;2023-12-20T12:14:39;94409.13;;;2.84;74.56
10688;BME280;5392;42.688;23.298;2023-12-20T12:17:15;94408.63;;;2.89;74.79
10688;BME280;5392;42.688;23.298;2023-12-20T12:19:41;94397.69;;;2.72;75.33
10688;BME280;5392;42.688;23.298;2023-12-20T12:22:08;94398.63;;;2.87;74.75
10688;BME280;5392;42.688;23.298;2023-12-20T12:24:39;94391.44;;;2.91;74.80
10688;BME280;5392;42.688;23.298;2023-12-20T12:27:07;94392.53;;;2.97;74.37
10688;BME280;5392;42.688;23.298;2023-12-20T12:29:34;94384.63;;;2.83;74.88
10688;BME280;5392;42.688;23.298;2023-12-20T12:31:59;94394.66;;;2.77;74.79
10688;BME280;5392;42.688;23.298;2023-12-20T12:34:27;94397.38;;;2.75;75.42
10688;BME280;5392;42.688;23.298;2023-12-20T12:36:53;94399.34;;;2.65;75.00
10688;BME280;5392;42.688;23.298;2023-12-20T12:39:19;94406.34;;;2.55;76.49
10688;BME280;5392;42.688;23.298;2023-12-20T12:41:45;94399.53;;;2.48;76.64
10688;BME280;5392;42.688;23.298;2023-12-20T12:44:10;94394.28;;;2.49;77.16
10688;BME280;5392;42.688;23.298;2023-12-20T12:46:36;94386.19;;;2.38;76.95
10688;BME280;5392;42.688;23.298;2023-12-20T12:49:04;94378.53;;;2.46;77.21
10688;BME280;5392;42.688;23.298;2023-12-20T12:51:29;94382.31;;;2.58;76.24
10688;BME280;5392;42.688;23.298;2023-12-20T12:53:55;94379.69;;;2.35;76.60
10688;BME280;5392;42.688;23.298;2023-12-20T12:56:20;94377.09;;;2.51;76.98
10688;BME280;5392;42.688;23.298;2023-12-20T12:58:47;94379.16;;;2.56;76.96
10688;BME280;5392;42.688;23.298;2023-12-20T13:01:13;94378.22;;;2.49;77.32
10688;BME280;5392;42.688;23.298;2023-12-20T13:03:39;94380.13;;;2.47;76.85
10688;BME280;5392;42.688;23.298;2023-12-20T13:06:05;94379.28;;;2.62;76.19
10688;BME280;5392;42.688;23.298;2023-12-20T13:08:31;94378.34;;;2.63;76.43